Vladivostok International Airport
UHWW : now visible

Airfield :











YOU CAN JOIN US ON...

 
LOGIN :

Register | Disclaimer

   EN    FR    IT 

 









Legend :    VFR   Marginal VFR   IFR   Intensive IFR   Very Intensive IFR
Visi :
Ceiling :
>= 8 km
>= 3000ft
5 to 8 km
1000 to 3000 ft
1500m to 5 km
500 to 1000 ft
800 to 1500m
200 to 500 ft
< 800m
< 200 ft
Symbols :   Thunderstorms  Fog  Heavy snow  Heavy precipitations  Wind > 20 kt






- Airport Elevation : 46 ft
- IATA code : VVO


UHWW - Vladivostok International

CURRENT METAR :
  • 222230Z 18003MPS 9000 BKN026CB 08/08 Q1024 R25L/820255 NOSIG RMK QFE767

EXPIRED METARs :
  • 222200Z 04002MPS 8000 0500E R25L/0800N PRFG BKN020CB 05/05 Q1025 R25L/820255 NOSIG RMK QFE767
  • 222130Z 16002MPS 9000 SCT010 BKN020CB 06/05 Q1025 R25L/820255 NOSIG RMK QFE767
  • 222100Z 25002MPS 200V280 9999 -SHRA SCT010 BKN020CB 07/06 Q1025 R25L/820255 NOSIG RMK QFE767
  • 222030Z 00000MPS 9999 OVC013 06/05 Q1025 R25L/820255 NOSIG RMK QFE767
  • 222000Z 23003MPS 190V280 9999 BKN023 07/05 Q1025 R07R/820255 NOSIG RMK QFE768

TAF AMD TAF UHWW
Valid from the 22 at 22:00 until the 23 at 21:00 UTC


222142Z 2222/2321 18003MPS 5000 BR BKN011 BKN017CB
TEMPO 2222/2302 0400 FG VV002
BECMG 2308/2310 3100 -SHRASN
BECMG 2312/2314 36003MPS



MET'MAP, your aeronautical weather chart ! - Copyright ORBIFLY December 2007 - Disclaimer

ORBIFLY MET'MAP TEAM :

Programming & Development : Alexandra Zaïnal
Concept & Development : Baudouin d'Aumeries
Co-Development & Prog : Marc-Olivier Méhu
Technical & hardware support : Manuel Goepfert

Contact : metmap@orbifly.com




SOURCES & CREDITS :

   NOAA       Earth
Advisory